Terminal Aerodrome Forecast
Issued by NWS

Home | Current Version | Previous Version | Graphics & Text | Print | Product List | Glossary On
Versions: 1 2 3 4 5 6 7 8 9 10 11 12 13 14 15
012
FTUS43 KBIS 201740
TAFMOT
TAF
KMOT 201740Z 2018/2118 36004KT P6SM FEW120 BKN250
     FM202200 14004KT P6SM FEW100 SCT250
     FM210700 14008KT P6SM BKN150 WS020/18035KT
     FM211300 19010KT P6SM SCT250
     FM211600 25014KT P6SM SCT250=

USA.gov is the U.S. government's official web portal to all federal, state and local government web resources and services.